Time;durP1;ratioP1;P1;durP2;ratioP2;P2;SDS_P1;SDS_P2;PMS_P1;PMS_P2;Temp;Humidity;BMP_temperature;BMP_pressure;BME280_temperature;BME280_humidity;BME280_pressure;Samples;Min_cycle;Max_cycle;Signal;HPM_P1;HPM_P2
2021/11/04 00:01:09;;;;;;;15.53;10.90;;;9.60;99.90;;;;;;6185478;23;20139;-86
2021/11/04 00:03:34;;;;;;;15.23;12.20;;;9.60;99.90;;;;;;6158111;23;20232;-89
2021/11/04 00:06:00;;;;;;;21.83;14.70;;;9.40;99.90;;;;;;6159360;23;20500;-88
2021/11/04 00:08:26;;;;;;;16.73;11.70;;;9.40;99.90;;;;;;6185858;23;20680;-86
2021/11/04 00:10:51;;;;;;;17.97;10.90;;;9.60;99.90;;;;;;6159023;23;20522;-83
2021/11/04 00:13:17;;;;;;;15.07;10.30;;;9.70;99.90;;;;;;6184924;23;20139;-86
2021/11/04 00:15:43;;;;;;;14.70;10.27;;;9.80;99.90;;;;;;6158297;23;20160;-86
2021/11/04 00:18:10;;;;;;;16.90;10.53;;;9.70;99.90;;;;;;6183854;23;20236;-84
2021/11/04 00:20:36;;;;;;;13.27;11.30;;;9.60;99.90;;;;;;6157551;23;20166;-87
2021/11/04 00:23:02;;;;;;;19.40;12.87;;;9.70;99.90;;;;;;6158116;23;20159;-87
2021/11/04 00:25:28;;;;;;;14.23;11.07;;;9.70;99.90;;;;;;6158270;23;20155;-85
2021/11/04 00:27:54;;;;;;;15.43;11.03;;;9.70;99.90;;;;;;6158303;23;20149;-86
2021/11/04 00:30:19;;;;;;;15.17;11.33;;;9.60;99.90;;;;;;6158037;23;20194;-82
2021/11/04 00:32:49;;;;;;;13.93;10.97;;;9.60;99.90;;;;;;6158658;23;20191;-88
2021/11/04 00:35:15;;;;;;;16.03;10.40;;;9.60;99.90;;;;;;6184780;23;20140;-86
2021/11/04 00:37:41;;;;;;;13.97;10.73;;;9.60;99.90;;;;;;6158220;23;20155;-87
2021/11/04 00:40:08;;;;;;;14.70;10.97;;;9.50;99.90;;;;;;6158884;23;20147;-87
2021/11/04 00:42:34;;;;;;;13.77;10.03;;;9.30;99.90;;;;;;6158148;23;20152;-86
2021/11/04 00:45:00;;;;;;;11.97;9.83;;;9.00;99.90;;;;;;6158570;23;20160;-87
2021/11/04 00:47:26;;;;;;;17.47;11.17;;;8.90;99.90;;;;;;6157804;23;20157;-80
2021/11/04 00:49:51;;;;;;;21.80;15.57;;;9.30;99.90;;;;;;6185077;23;20528;-85
2021/11/04 00:52:17;;;;;;;26.73;18.63;;;9.50;99.90;;;;;;6159477;23;20170;-87
2021/11/04 00:54:42;;;;;;;33.30;21.70;;;9.50;99.90;;;;;;6185988;23;20572;-87
2021/11/04 00:57:09;;;;;;;49.60;29.67;;;9.50;99.90;;;;;;6160707;23;20241;-95
2021/11/04 00:59:34;;;;;;;20.53;14.23;;;9.50;99.90;;;;;;6158882;23;20153;-94
2021/11/04 01:02:00;;;;;;;91.27;51.57;;;9.60;99.90;;;;;;6160234;23;20155;-95
2021/11/04 01:04:26;;;;;;;39.83;24.33;;;9.40;99.90;;;;;;6160001;23;20150;-95
2021/11/04 01:06:52;;;;;;;85.47;46.00;;;9.50;99.90;;;;;;6159326;23;20572;-94
2021/11/04 01:09:17;;;;;;;155.00;77.13;;;9.30;99.90;;;;;;6159960;23;20212;-95
2021/11/04 01:11:43;;;;;;;36.30;20.13;;;9.40;99.90;;;;;;6159645;23;20477;-95
2021/11/04 01:14:09;;;;;;;32.77;18.93;;;9.20;99.90;;;;;;6159603;23;20150;-94
2021/11/04 01:16:34;;;;;;;28.87;16.73;;;9.10;99.90;;;;;;6159681;23;20149;-93
2021/11/04 01:19:01;;;;;;;46.20;25.97;;;9.10;99.90;;;;;;6159379;23;20153;-94
2021/11/04 01:21:27;;;;;;;37.50;20.53;;;9.30;99.90;;;;;;6159912;23;20162;-93
2021/11/04 01:23:53;;;;;;;98.20;48.07;;;9.30;99.90;;;;;;6159937;23;20157;-95
2021/11/04 01:26:19;;;;;;;89.53;43.27;;;9.40;99.90;;;;;;6160393;23;20244;-96
2021/11/04 01:28:45;;;;;;;84.90;40.50;;;9.40;99.90;;;;;;6158370;23;20185;-94
2021/11/04 01:31:11;;;;;;;34.90;18.90;;;9.20;99.90;;;;;;6159174;23;20161;-95
2021/11/04 01:33:37;;;;;;;90.00;47.33;;;9.00;99.90;;;;;;6159501;23;20150;-94
2021/11/04 01:36:02;;;;;;;74.83;40.57;;;9.10;99.90;;;;;;6159531;23;20154;-94
2021/11/04 01:38:28;;;;;;;31.40;15.40;;;9.30;99.90;;;;;;6160094;23;20153;-95
2021/11/04 01:40:54;;;;;;;56.23;30.33;;;9.40;99.90;;;;;;6161078;23;20531;-94
2021/11/04 01:43:19;;;;;;;59.60;30.27;;;9.40;99.90;;;;;;6164036;23;20503;-94
2021/11/04 01:45:48;;;;;;;26.87;13.67;;;9.20;99.90;;;;;;6161811;23;20150;-94
2021/11/04 01:48:14;;;;;;;75.80;41.30;;;9.30;99.90;;;;;;6159478;23;20571;-95
2021/11/04 01:50:40;;;;;;;35.23;19.20;;;9.20;99.90;;;;;;6159641;23;20173;-95
2021/11/04 01:53:07;;;;;;;69.87;34.63;;;9.30;99.90;;;;;;6160281;23;20462;-95
2021/11/04 01:55:33;;;;;;;101.53;50.47;;;9.10;99.90;;;;;;6159581;23;20152;-95
2021/11/04 01:57:59;;;;;;;67.23;36.27;;;9.10;99.90;;;;;;6158734;23;20235;-95
2021/11/04 02:00:28;;;;;;;158.60;80.50;;;9.00;99.90;;;;;;6160129;23;20191;-95
2021/11/04 02:03:16;;;;;;;78.93;43.97;;;9.10;99.90;;;;;;6159592;23;20169;-95
2021/11/04 02:05:56;;;;;;;58.67;32.57;;;9.10;99.90;;;;;;6159803;23;20160;-93
2021/11/04 02:08:55;;;;;;;89.30;43.17;;;8.90;99.90;;;;;;6158963;23;20177;-95
2021/11/04 02:11:24;;;;;;;137.27;64.50;;;8.80;99.90;;;;;;6158846;23;20651;-96
2021/11/04 02:14:08;;;;;;;90.70;44.23;;;8.80;99.90;;;;;;6160830;23;20565;-96
2021/11/04 02:16:35;;;;;;;100.90;49.60;;;8.80;99.90;;;;;;6159680;23;20180;-96
2021/11/04 02:19:12;;;;;;;29.70;18.03;;;8.70;99.90;;;;;;6161531;23;20199;-96
2021/11/04 02:22:13;;;;;;;116.00;58.63;;;8.60;99.90;;;;;;6161581;23;20199;-96
2021/11/04 02:25:10;;;;;;;143.50;71.23;;;8.60;99.90;;;;;;6138746;23;20162;-93
2021/11/04 02:27:47;;;;;;;61.37;33.87;;;8.70;99.90;;;;;;6161304;23;20176;-94
2021/11/04 02:30:14;;;;;;;22.73;15.23;;;8.70;99.90;;;;;;6161367;23;20276;-95
2021/11/04 02:32:40;;;;;;;20.57;14.80;;;8.80;99.90;;;;;;6161176;23;20148;-95
2021/11/04 02:35:06;;;;;;;31.47;19.63;;;8.60;99.90;;;;;;6160783;23;20180;-96
2021/11/04 02:37:32;;;;;;;83.23;44.93;;;8.60;99.90;;;;;;6161404;23;20196;-95
2021/11/04 02:39:59;;;;;;;39.50;27.10;;;8.70;99.90;;;;;;6161487;23;20154;-96
2021/11/04 02:42:26;;;;;;;25.00;17.37;;;8.80;99.90;;;;;;6161638;23;20147;-96
2021/11/04 02:44:51;;;;;;;18.33;13.97;;;8.70;99.90;;;;;;6161164;23;20158;-96
2021/11/04 02:47:18;;;;;;;98.57;69.17;;;8.70;99.90;;;;;;6161155;23;20612;-96
2021/11/04 02:49:45;;;;;;;18.57;14.67;;;8.80;99.90;;;;;;6160679;23;20200;-96
2021/11/04 02:52:12;;;;;;;18.77;13.07;;;8.60;99.90;;;;;;6161208;23;20161;-94
2021/11/04 02:54:38;;;;;;;18.57;13.87;;;8.50;99.90;;;;;;6160763;23;20153;-93
2021/11/04 02:57:06;;;;;;;17.57;13.10;;;8.50;99.90;;;;;;6161519;23;20231;-94
2021/11/04 02:59:32;;;;;;;14.77;11.03;;;8.80;99.90;;;;;;6161107;23;20621;-95
2021/11/04 03:02:00;;;;;;;19.07;13.57;;;8.80;99.90;;;;;;6161021;23;20138;-96
2021/11/04 03:04:28;;;;;;;17.37;13.57;;;8.60;99.90;;;;;;6161326;23;20207;-93
2021/11/04 03:06:53;;;;;;;15.10;11.40;;;8.80;99.90;;;;;;6161847;23;20138;-96
2021/11/04 03:09:20;;;;;;;14.03;11.20;;;8.70;99.90;;;;;;6161305;23;20181;-96
2021/11/04 03:11:46;;;;;;;17.10;13.30;;;8.50;99.90;;;;;;6161577;23;20179;-94
2021/11/04 03:14:14;;;;;;;15.13;12.50;;;8.60;99.90;;;;;;6160882;23;20158;-94
2021/11/04 03:16:43;;;;;;;16.13;12.03;;;8.60;99.90;;;;;;6161864;23;20146;-95
2021/11/04 03:19:13;;;;;;;16.77;11.97;;;8.70;99.90;;;;;;6162204;23;20166;-94
2021/11/04 03:21:45;;;;;;;16.43;12.97;;;8.70;99.90;;;;;;6162621;23;20611;-96
2021/11/04 03:24:12;;;;;;;17.03;12.10;;;8.80;99.90;;;;;;6162334;23;20182;-96
2021/11/04 03:26:42;;;;;;;16.27;12.27;;;8.50;99.90;;;;;;6161938;23;20233;-95
2021/11/04 03:29:09;;;;;;;16.67;12.00;;;8.70;99.90;;;;;;6160990;23;20181;-95
2021/11/04 03:31:38;;;;;;;18.77;12.60;;;8.50;99.90;;;;;;6160834;23;20231;-95
2021/11/04 03:34:08;;;;;;;16.93;11.93;;;8.50;99.90;;;;;;6160750;23;20145;-95
2021/11/04 03:36:35;;;;;;;17.63;11.77;;;8.50;99.90;;;;;;6160555;23;20159;-94
2021/11/04 03:39:02;;;;;;;16.60;11.93;;;8.60;99.90;;;;;;6161714;23;20450;-95
2021/11/04 03:41:29;;;;;;;18.60;12.43;;;8.60;99.90;;;;;;6161340;23;20141;-95
2021/11/04 03:43:55;;;;;;;14.77;11.70;;;8.40;99.90;;;;;;6160551;23;20208;-95
2021/11/04 03:46:21;;;;;;;16.93;12.07;;;8.30;99.90;;;;;;6160453;23;20150;-95
2021/11/04 03:48:47;;;;;;;18.77;12.00;;;8.50;99.90;;;;;;6161220;23;20169;-96
2021/11/04 03:51:13;;;;;;;16.03;12.13;;;8.40;99.90;;;;;;6161539;23;20187;-94
2021/11/04 03:53:40;;;;;;;15.17;11.80;;;8.40;99.90;;;;;;6164063;23;20138;-94
2021/11/04 03:56:07;;;;;;;17.33;13.53;;;8.20;99.90;;;;;;6169625;23;20605;-95
2021/11/04 03:58:37;;;;;;;16.53;11.60;;;8.40;99.90;;;;;;6168884;23;20157;-92
2021/11/04 04:01:04;;;;;;;16.10;12.00;;;8.40;99.90;;;;;;6164189;23;20145;-94
2021/11/04 04:03:31;;;;;;;16.37;13.10;;;8.40;99.90;;;;;;6162257;23;20208;-96
2021/11/04 04:06:05;;;;;;;19.20;13.90;;;8.40;99.90;;;;;;6163570;23;20156;-96
2021/11/04 04:08:35;;;;;;;17.60;13.83;;;8.40;99.90;;;;;;6162091;23;20199;-96
2021/11/04 04:11:03;;;;;;;20.37;14.17;;;8.50;99.90;;;;;;6160334;23;20180;-94
2021/11/04 04:13:29;;;;;;;18.10;13.03;;;8.50;99.90;;;;;;6160815;23;20137;-96
2021/11/04 04:15:54;;;;;;;20.70;13.47;;;8.50;99.90;;;;;;6159721;23;20159;-95
2021/11/04 04:18:20;;;;;;;20.53;14.93;;;8.50;99.90;;;;;;6161329;23;20150;-94
2021/11/04 04:20:47;;;;;;;18.23;13.73;;;8.60;99.90;;;;;;6162448;23;20256;-95
2021/11/04 04:23:14;;;;;;;19.20;13.27;;;8.50;99.90;;;;;;6162455;23;20230;-95
2021/11/04 04:25:39;;;;;;;19.57;14.20;;;8.50;99.90;;;;;;6160337;23;20154;-94
2021/11/04 04:28:05;;;;;;;21.80;14.20;;;8.50;99.90;;;;;;6160106;23;20145;-96
2021/11/04 04:30:31;;;;;;;20.00;13.90;;;8.70;99.90;;;;;;6160654;23;20148;-96
2021/11/04 04:32:57;;;;;;;23.83;15.27;;;8.70;99.90;;;;;;6160028;23;20155;-95
2021/11/04 04:35:23;;;;;;;19.87;14.93;;;8.80;99.90;;;;;;6160380;23;20150;-95
2021/11/04 04:37:48;;;;;;;22.27;15.03;;;8.90;99.90;;;;;;6160548;23;20145;-95
2021/11/04 04:40:14;;;;;;;21.17;15.50;;;8.80;99.90;;;;;;6160061;23;20155;-95
2021/11/04 04:42:41;;;;;;;22.47;16.23;;;8.80;99.90;;;;;;6160110;23;20490;-94
2021/11/04 04:45:07;;;;;;;25.20;15.83;;;8.90;99.90;;;;;;6160414;23;20149;-94
2021/11/04 04:47:34;;;;;;;23.23;16.30;;;8.80;99.90;;;;;;6160383;23;20181;-95
2021/11/04 04:50:00;;;;;;;23.07;17.27;;;8.90;99.90;;;;;;6162261;23;20200;-94
2021/11/04 04:52:29;;;;;;;26.73;17.03;;;8.80;99.90;;;;;;6164278;23;20145;-96
2021/11/04 04:54:56;;;;;;;26.10;17.73;;;8.70;99.90;;;;;;6163380;23;20149;-96
2021/11/04 04:57:23;;;;;;;25.23;18.17;;;8.60;99.90;;;;;;6160918;23;20146;-94
2021/11/04 04:59:55;;;;;;;24.67;18.40;;;8.70;99.90;;;;;;6161085;23;20173;-94
2021/11/04 05:02:21;;;;;;;26.90;17.63;;;8.70;99.90;;;;;;6160531;23;20233;-94
2021/11/04 05:04:47;;;;;;;26.63;18.50;;;8.60;99.90;;;;;;6160850;23;20150;-96
2021/11/04 05:07:12;;;;;;;23.23;17.87;;;8.60;99.90;;;;;;6160432;23;20143;-96
2021/11/04 05:09:38;;;;;;;28.13;17.33;;;8.80;99.90;;;;;;6135334;23;20193;-96
2021/11/04 05:12:06;;;;;;;23.27;17.50;;;8.90;99.90;;;;;;6161691;23;20146;-96
2021/11/04 05:14:33;;;;;;;25.30;18.37;;;9.00;99.90;;;;;;6161633;23;20229;-96
2021/11/04 05:16:58;;;;;;;26.63;18.27;;;9.00;99.90;;;;;;6158839;23;20153;-95
2021/11/04 05:19:24;;;;;;;24.93;17.97;;;9.00;99.90;;;;;;6160380;23;20165;-96
2021/11/04 05:21:50;;;;;;;26.30;18.27;;;8.90;99.90;;;;;;6160977;23;20219;-96
2021/11/04 05:24:16;;;;;;;27.20;19.67;;;9.00;99.90;;;;;;6160217;23;20154;-93
2021/11/04 05:26:42;;;;;;;31.70;20.00;;;8.90;99.90;;;;;;6161012;23;20157;-95
2021/11/04 05:29:08;;;;;;;27.13;20.40;;;8.90;99.90;;;;;;6160715;23;20511;-96
2021/11/04 05:31:34;;;;;;;29.27;19.83;;;8.70;99.90;;;;;;6160850;23;20235;-95
2021/11/04 05:34:00;;;;;;;32.07;19.10;;;8.70;99.90;;;;;;6160480;23;20188;-96
2021/11/04 05:36:26;;;;;;;31.93;20.67;;;8.60;99.90;;;;;;6161122;23;20146;-96
2021/11/04 05:38:53;;;;;;;30.70;20.03;;;8.60;99.90;;;;;;6160196;23;20219;-96
2021/11/04 05:41:19;;;;;;;31.57;19.60;;;8.50;99.90;;;;;;6161608;23;20180;-96
2021/11/04 05:43:44;;;;;;;31.03;19.90;;;8.50;99.90;;;;;;6160494;23;20161;-94
2021/11/04 05:46:11;;;;;;;31.10;19.33;;;8.50;99.90;;;;;;6160026;23;20219;-96
2021/11/04 05:48:37;;;;;;;29.93;20.30;;;8.40;99.90;;;;;;6160384;23;20617;-95
2021/11/04 05:51:03;;;;;;;28.63;19.50;;;8.30;99.90;;;;;;6159958;23;20207;-96
2021/11/04 05:53:28;;;;;;;29.73;20.60;;;8.30;99.90;;;;;;6161040;23;20145;-96
2021/11/04 05:55:55;;;;;;;28.63;18.63;;;8.20;99.90;;;;;;6162328;23;20152;-95
2021/11/04 05:58:21;;;;;;;33.93;21.17;;;8.10;99.90;;;;;;6161766;23;20149;-95
2021/11/04 06:00:47;;;;;;;33.03;20.43;;;8.00;99.90;;;;;;6161293;23;20590;-95
2021/11/04 06:03:13;;;;;;;33.43;20.90;;;8.20;99.90;;;;;;6161353;23;20145;-94
2021/11/04 06:05:42;;;;;;;36.13;21.03;;;8.20;99.90;;;;;;6162534;23;20208;-96
2021/11/04 06:08:09;;;;;;;31.87;20.80;;;8.00;99.90;;;;;;6161877;23;20153;-96
2021/11/04 06:10:35;;;;;;;31.50;20.23;;;8.00;99.90;;;;;;6161410;23;20199;-95
2021/11/04 06:13:02;;;;;;;32.60;20.63;;;7.90;99.90;;;;;;6161177;23;20585;-96
2021/11/04 06:15:28;;;;;;;34.90;21.67;;;7.80;99.90;;;;;;6161921;23;20157;-96
2021/11/04 06:17:54;;;;;;;33.63;20.83;;;8.10;99.90;;;;;;6161412;23;20148;-95
2021/11/04 06:20:19;;;;;;;36.63;21.70;;;8.00;99.90;;;;;;6160989;23;20159;-94
2021/11/04 06:22:45;;;;;;;38.10;23.63;;;7.80;99.90;;;;;;6162089;23;20503;-94
2021/11/04 06:25:11;;;;;;;35.47;21.97;;;7.70;99.90;;;;;;6162068;23;20228;-93
2021/11/04 06:27:38;;;;;;;35.73;22.73;;;7.70;99.90;;;;;;6161867;23;20159;-96
2021/11/04 06:30:08;;;;;;;37.40;23.27;;;7.60;99.90;;;;;;6161762;23;20184;-94
2021/11/04 06:32:35;;;;;;;38.60;22.13;;;7.40;99.90;;;;;;6161346;23;20244;-96
2021/11/04 06:35:03;;;;;;;42.33;24.17;;;7.50;99.90;;;;;;6161838;23;20156;-94
2021/11/04 06:37:30;;;;;;;39.77;22.77;;;7.50;99.90;;;;;;6161735;23;20141;-96
2021/11/04 06:39:55;;;;;;;40.53;23.83;;;7.50;99.90;;;;;;6161350;23;20144;-96
2021/11/04 06:42:22;;;;;;;41.17;24.77;;;7.50;99.90;;;;;;6161334;23;20156;-95
2021/11/04 06:44:48;;;;;;;42.63;23.50;;;7.50;99.90;;;;;;6161494;23;20211;-96
2021/11/04 06:47:28;;;;;;;39.57;24.17;;;7.40;99.90;;;;;;6161313;23;20144;-96
2021/11/04 06:49:57;;;;;;;39.67;23.77;;;7.30;99.90;;;;;;6161471;23;20203;-96
2021/11/04 06:52:41;;;;;;;42.03;25.30;;;7.30;99.90;;;;;;6160717;23;20492;-93
2021/11/04 06:55:08;;;;;;;48.03;25.93;;;7.30;99.90;;;;;;6162369;23;20577;-94
2021/11/04 06:57:43;;;;;;;46.47;26.93;;;7.20;99.90;;;;;;6162209;23;20181;-96
2021/11/04 07:00:11;;;;;;;42.27;26.70;;;7.00;99.90;;;;;;6161106;23;20196;-96
2021/11/04 07:02:39;;;;;;;45.03;25.63;;;7.00;99.90;;;;;;6160721;23;20149;-96
2021/11/04 07:05:08;;;;;;;45.67;25.40;;;7.00;99.90;;;;;;6161197;23;20152;-96
2021/11/04 07:07:45;;;;;;;45.07;25.63;;;7.10;99.90;;;;;;6160166;23;20636;-94
2021/11/04 07:10:12;;;;;;;44.63;25.13;;;7.10;99.90;;;;;;6160852;23;20633;-94
2021/11/04 07:12:43;;;;;;;43.20;25.90;;;7.30;99.90;;;;;;6161841;23;20141;-94
2021/11/04 07:15:09;;;;;;;45.47;26.77;;;7.30;99.90;;;;;;6160650;23;20176;-94
2021/11/04 07:17:39;;;;;;;43.63;24.93;;;7.30;99.90;;;;;;6159795;23;20307;-94
2021/11/04 07:20:05;;;;;;;43.63;24.47;;;7.50;99.90;;;;;;6160972;23;20160;-95
2021/11/04 07:22:39;;;;;;;42.97;24.83;;;7.60;99.90;;;;;;6160505;23;20158;-93
2021/11/04 07:25:08;;;;;;;42.50;25.33;;;7.60;99.90;;;;;;6160871;23;20180;-95
2021/11/04 07:27:53;;;;;;;43.40;24.40;;;7.60;99.90;;;;;;6160806;23;20152;-95
2021/11/04 07:30:20;;;;;;;43.50;23.73;;;7.80;99.90;;;;;;6160765;23;20189;-93
2021/11/04 07:32:47;;;;;;;40.17;23.50;;;7.70;99.90;;;;;;6160027;23;20574;-94
2021/11/04 07:35:21;;;;;;;41.73;24.07;;;7.70;99.90;;;;;;6159618;23;20146;-92
2021/11/04 07:37:47;;;;;;;41.27;23.60;;;7.50;99.90;;;;;;6160670;23;20597;-95
2021/11/04 07:40:15;;;;;;;45.67;25.03;;;7.60;99.90;;;;;;6160527;23;20144;-95
2021/11/04 07:42:42;;;;;;;43.50;25.47;;;7.60;99.90;;;;;;6160380;23;20145;-95
2021/11/04 07:45:09;;;;;;;40.03;24.40;;;7.50;99.90;;;;;;6160053;23;20148;-95
2021/11/04 07:47:42;;;;;;;41.63;24.33;;;7.50;99.90;;;;;;6160911;23;20149;-95
2021/11/04 07:50:11;;;;;;;39.43;24.30;;;7.60;99.90;;;;;;6159247;23;20200;-95
2021/11/04 07:52:39;;;;;;;39.63;24.10;;;7.80;99.90;;;;;;6160688;23;20161;-94
2021/11/04 07:55:06;;;;;;;38.53;24.17;;;7.90;99.90;;;;;;6159882;23;20149;-93
2021/11/04 07:57:33;;;;;;;39.83;23.37;;;7.90;99.90;;;;;;6159643;23;20569;-94
2021/11/04 08:00:03;;;;;;;40.53;23.23;;;7.70;99.90;;;;;;6160489;23;20219;-96
2021/11/04 08:02:28;;;;;;;39.47;23.00;;;7.70;99.90;;;;;;6160960;23;20149;-95
2021/11/04 08:04:55;;;;;;;39.57;22.53;;;7.60;99.90;;;;;;6161031;23;20188;-96
2021/11/04 08:07:21;;;;;;;39.83;21.60;;;7.60;99.90;;;;;;6161487;23;20140;-96
2021/11/04 08:09:46;;;;;;;40.23;22.40;;;7.50;99.90;;;;;;6161259;23;20192;-96
2021/11/04 08:12:12;;;;;;;36.60;21.57;;;7.50;99.90;;;;;;6160074;23;20159;-92
2021/11/04 08:14:39;;;;;;;35.07;21.40;;;7.50;99.90;;;;;;6160245;23;20180;-96
2021/11/04 08:17:05;;;;;;;36.33;22.60;;;7.60;99.90;;;;;;6160478;23;20211;-94
2021/11/04 08:19:30;;;;;;;39.83;21.00;;;7.60;99.90;;;;;;6151368;23;20303;-90
2021/11/04 08:21:56;;;;;;;31.97;20.27;;;7.70;99.90;;;;;;6185810;23;20176;-94
2021/11/04 08:24:22;;;;;;;34.70;19.53;;;7.90;99.90;;;;;;6158273;23;20153;-84
2021/11/04 09:43:38;;;;;;;23.43;14.97;;;8.80;99.90;;;;;;6157763;23;20606;-89
2021/11/04 09:46:03;;;;;;;25.93;15.60;;;8.90;99.90;;;;;;6131862;23;20234;-86
2021/11/04 09:48:30;;;;;;;31.17;18.97;;;9.00;99.90;;;;;;6132009;23;20142;-86
2021/11/04 09:50:57;;;;;;;39.17;23.43;;;9.10;99.90;;;;;;6160859;23;20224;-87
2021/11/04 09:53:22;;;;;;;28.23;17.37;;;9.20;99.90;;;;;;6184577;23;20150;-86
2021/11/04 09:55:48;;;;;;;27.57;18.10;;;9.20;99.90;;;;;;6187231;23;20151;-87
2021/11/04 09:58:14;;;;;;;25.50;16.63;;;9.30;99.90;;;;;;6160025;23;20149;-87
2021/11/04 10:00:41;;;;;;;34.10;20.33;;;9.40;99.90;;;;;;6161098;23;20153;-88
2021/11/04 10:03:09;;;;;;;32.97;20.43;;;9.60;99.90;;;;;;6160564;23;20157;-85
2021/11/04 10:05:52;;;;;;;28.47;18.27;;;9.70;99.90;;;;;;6151532;23;20155;-85
2021/11/04 10:08:39;;;;;;;24.00;15.73;;;9.70;99.90;;;;;;6159803;23;20492;-87
2021/11/04 10:11:13;;;;;;;26.47;16.30;;;9.80;99.90;;;;;;6160388;23;20181;-85
2021/11/04 10:13:45;;;;;;;24.13;14.73;;;10.00;99.90;;;;;;6160306;23;20152;-88
2021/11/04 10:16:13;;;;;;;22.53;14.60;;;10.10;99.90;;;;;;6160715;23;20155;-86
2021/11/04 10:18:48;;;;;;;25.47;14.47;;;10.20;99.90;;;;;;6160358;23;20160;-86
2021/11/04 10:21:21;;;;;;;25.30;15.43;;;10.20;99.90;;;;;;6160171;23;20150;-86
2021/11/04 10:23:48;;;;;;;29.20;17.87;;;10.50;99.90;;;;;;6159468;23;20176;-89
2021/11/04 10:26:26;;;;;;;33.13;19.93;;;11.00;99.90;;;;;;6160047;23;20153;-85
2021/11/04 10:29:01;;;;;;;22.97;15.47;;;11.10;99.90;;;;;;6161909;23;20228;-93
2021/11/04 10:31:41;;;;;;;26.53;19.13;;;10.90;99.90;;;;;;6160573;23;20176;-86
2021/11/04 10:34:13;;;;;;;23.47;16.17;;;10.80;99.90;;;;;;6186910;23;20164;-85
2021/11/04 10:36:44;;;;;;;22.57;13.40;;;10.70;99.90;;;;;;6160331;23;20160;-87
2021/11/04 10:39:11;;;;;;;21.50;14.27;;;10.80;99.90;;;;;;6159622;23;20145;-87
2021/11/04 10:41:40;;;;;;;20.97;14.00;;;10.90;99.90;;;;;;6159919;23;20183;-87
2021/11/04 10:44:12;;;;;;;29.17;16.27;;;10.90;99.90;;;;;;6161315;23;20137;-86
2021/11/04 10:46:45;;;;;;;22.60;14.93;;;11.00;99.90;;;;;;6160596;23;20163;-87
2021/11/04 10:49:12;;;;;;;22.10;14.57;;;11.10;99.90;;;;;;6161092;23;20177;-86
2021/11/04 10:51:38;;;;;;;25.57;15.47;;;11.30;99.90;;;;;;6160270;23;20144;-87
2021/11/04 10:54:10;;;;;;;23.60;14.97;;;11.40;99.90;;;;;;6159575;23;20153;-86
2021/11/04 10:56:41;;;;;;;25.37;17.17;;;11.30;99.90;;;;;;6159819;23;20149;-85
2021/11/04 10:59:16;;;;;;;26.77;17.23;;;11.10;99.90;;;;;;6159493;23;20152;-86
2021/11/04 11:01:46;;;;;;;27.20;15.53;;;11.00;99.90;;;;;;6159732;23;20488;-86
2021/11/04 11:04:17;;;;;;;21.40;13.43;;;11.00;99.90;;;;;;6159441;23;20152;-88
2021/11/04 11:06:46;;;;;;;29.13;16.37;;;10.90;99.90;;;;;;6160292;23;20171;-87
2021/11/04 11:09:19;;;;;;;25.03;14.77;;;10.90;99.90;;;;;;6160016;23;20168;-87
2021/11/04 11:11:48;;;;;;;25.30;14.93;;;10.80;99.90;;;;;;6160025;23;20203;-86
2021/11/04 11:14:14;;;;;;;25.80;14.67;;;10.80;99.90;;;;;;6161164;23;20211;-85
2021/11/04 11:16:48;;;;;;;23.63;15.03;;;10.90;99.90;;;;;;6161201;23;20156;-85
2021/11/04 11:19:25;;;;;;;26.00;15.17;;;10.90;99.90;;;;;;6159870;23;20463;-87
2021/11/04 11:21:52;;;;;;;31.90;16.27;;;10.90;99.90;;;;;;6159545;23;20629;-85
2021/11/04 11:24:36;;;;;;;27.77;16.00;;;10.90;99.90;;;;;;6159610;23;20210;-88
2021/11/04 11:27:06;;;;;;;24.50;15.83;;;11.00;99.90;;;;;;6160119;23;20239;-85
2021/11/04 11:29:34;;;;;;;32.50;15.80;;;11.00;99.90;;;;;;6160575;23;20185;-87
2021/11/04 11:32:00;;;;;;;26.80;16.30;;;11.00;99.90;;;;;;6160814;23;20544;-86
2021/11/04 11:34:32;;;;;;;23.70;14.90;;;11.10;99.90;;;;;;6160498;23;20156;-85
2021/11/04 11:37:21;;;;;;;23.63;15.53;;;11.20;99.90;;;;;;6159896;23;20144;-87
2021/11/04 11:39:51;;;;;;;31.10;20.57;;;11.30;99.90;;;;;;6159994;23;20214;-88
2021/11/04 11:42:27;;;;;;;50.10;26.57;;;11.40;99.90;;;;;;6159434;23;20178;-86
2021/11/04 11:45:20;;;;;;;27.07;15.27;;;11.40;99.90;;;;;;6160066;23;20201;-85
2021/11/04 11:47:47;;;;;;;43.10;25.67;;;11.20;99.90;;;;;;6159243;23;20466;-87
2021/11/04 11:50:32;;;;;;;26.17;15.50;;;11.30;99.90;;;;;;6185936;23;20173;-87
2021/11/04 11:53:00;;;;;;;37.83;20.97;;;11.30;99.90;;;;;;6159767;23;20592;-88
2021/11/04 11:55:42;;;;;;;45.40;28.07;;;11.40;99.90;;;;;;6160180;23;20236;-87
2021/11/04 11:58:15;;;;;;;22.73;14.53;;;11.30;99.90;;;;;;6160246;23;20152;-88
2021/11/04 12:01:08;;;;;;;45.87;26.00;;;11.40;99.90;;;;;;6159911;23;20148;-86
2021/11/04 12:03:35;;;;;;;33.93;20.13;;;11.60;99.90;;;;;;6147896;23;20156;-87
2021/11/04 12:06:16;;;;;;;24.27;15.50;;;11.70;99.90;;;;;;6159611;23;20188;-87
2021/11/04 12:08:57;;;;;;;31.13;19.07;;;11.80;99.90;;;;;;6159563;23;20234;-88
2021/11/04 12:11:38;;;;;;;30.10;18.77;;;11.70;99.90;;;;;;6159044;23;20214;-88
2021/11/04 12:14:24;;;;;;;26.77;17.23;;;11.80;99.90;;;;;;6159692;23;20162;-87
2021/11/04 12:16:59;;;;;;;26.43;15.53;;;11.90;99.90;;;;;;6140351;23;20155;-86
2021/11/04 12:19:49;;;;;;;19.50;12.33;;;12.00;99.90;;;;;;6159659;23;20187;-85
2021/11/04 12:22:17;;;;;;;19.10;12.10;;;12.10;99.90;;;;;;6159578;23;20172;-85
2021/11/04 12:24:54;;;;;;;18.50;12.17;;;12.40;99.90;;;;;;6159748;23;20187;-87
2021/11/04 12:27:21;;;;;;;22.93;12.53;;;12.80;99.90;;;;;;6159571;23;20158;-88
2021/11/04 12:29:48;;;;;;;17.60;11.23;;;13.20;99.90;;;;;;6159802;23;20613;-88
2021/11/04 12:32:15;;;;;;;29.40;15.13;;;13.20;99.90;;;;;;6160065;23;20199;-88
2021/11/04 12:34:52;;;;;;;19.53;11.80;;;13.10;99.90;;;;;;6159486;23;20504;-88
2021/11/04 12:37:18;;;;;;;25.10;13.90;;;13.20;99.90;;;;;;6159077;23;20210;-88
2021/11/04 12:39:45;;;;;;;20.60;11.63;;;13.10;99.90;;;;;;6159927;23;20160;-88
2021/11/04 12:42:15;;;;;;;15.50;10.23;;;13.00;99.90;;;;;;6159315;23;20168;-87
2021/11/04 12:44:41;;;;;;;15.77;10.47;;;12.80;99.90;;;;;;6158445;23;20156;-87
2021/11/04 12:47:06;;;;;;;27.30;15.07;;;12.70;99.90;;;;;;6158346;23;20227;-86
2021/11/04 12:49:39;;;;;;;20.90;12.03;;;12.50;99.90;;;;;;6160043;23;20180;-87
2021/11/04 12:52:07;;;;;;;24.40;12.20;;;12.40;99.90;;;;;;6158666;23;20491;-88
2021/11/04 12:54:38;;;;;;;21.13;12.77;;;12.30;99.90;;;;;;6158176;23;20228;-88
2021/11/04 12:57:09;;;;;;;25.20;14.17;;;12.20;99.90;;;;;;6158402;23;20160;-87
2021/11/04 12:59:47;;;;;;;20.30;11.63;;;12.20;99.90;;;;;;6158285;23;20152;-87
2021/11/04 13:02:15;;;;;;;18.77;10.57;;;12.30;99.90;;;;;;6158935;23;20188;-87
2021/11/04 13:05:02;;;;;;;37.57;20.47;;;12.30;99.90;;;;;;6159103;23;20180;-87
2021/11/04 13:07:37;;;;;;;17.97;11.70;;;12.40;99.90;;;;;;6159522;23;20156;-86
2021/11/04 13:10:05;;;;;;;16.20;9.23;;;12.40;99.90;;;;;;6159279;23;20199;-87
2021/11/04 13:12:43;;;;;;;17.63;10.07;;;12.40;99.90;;;;;;6159491;23;20167;-88
2021/11/04 13:15:14;;;;;;;14.60;7.83;;;12.40;99.90;;;;;;6159780;23;20538;-87
2021/11/04 13:17:59;;;;;;;9.80;6.93;;;12.40;99.90;;;;;;6158091;23;20159;-87
2021/11/04 13:20:27;;;;;;;7.23;4.30;;;12.30;99.90;;;;;;6158894;23;20183;-88
2021/11/04 13:22:57;;;;;;;5.57;2.50;;;12.30;99.90;;;;;;6158216;23;20149;-88
2021/11/04 13:25:32;;;;;;;5.20;2.00;;;12.30;99.90;;;;;;6159863;23;20497;-87
2021/11/04 13:28:16;;;;;;;4.03;2.50;;;12.40;99.90;;;;;;6158758;23;20565;-87
2021/11/04 13:30:43;;;;;;;7.37;2.30;;;12.40;99.90;;;;;;6159285;23;20180;-88
2021/11/04 13:33:09;;;;;;;7.10;2.00;;;12.20;99.90;;;;;;6185316;23;20190;-88
2021/11/04 13:35:40;;;;;;;8.07;3.03;;;12.20;99.90;;;;;;6159370;23;20148;-88
2021/11/04 13:38:08;;;;;;;9.50;3.43;;;12.00;99.90;;;;;;6159117;23;20141;-87
2021/11/04 13:40:53;;;;;;;7.37;2.80;;;11.90;99.90;;;;;;6161254;23;20155;-89
2021/11/04 13:43:33;;;;;;;10.07;2.90;;;11.90;99.90;;;;;;6160767;23;20175;-86
2021/11/04 13:46:06;;;;;;;7.77;2.93;;;11.80;99.90;;;;;;6161166;23;20235;-88
2021/11/04 13:48:33;;;;;;;5.73;2.70;;;11.70;99.90;;;;;;6158706;23;20248;-89
2021/11/04 13:50:59;;;;;;;8.33;2.60;;;11.80;99.90;;;;;;6159559;23;20541;-88
2021/11/04 13:53:26;;;;;;;5.20;2.63;;;11.80;99.90;;;;;;6158873;23;20141;-86
2021/11/04 13:55:56;;;;;;;8.00;3.40;;;11.90;99.90;;;;;;6159955;23;20242;-87
2021/11/04 13:58:44;;;;;;;4.83;3.03;;;12.00;99.90;;;;;;6159166;23;20240;-87
2021/11/04 14:01:11;;;;;;;10.30;4.23;;;12.00;99.90;;;;;;6159136;23;20600;-86
2021/11/04 14:03:40;;;;;;;8.53;2.77;;;12.00;99.90;;;;;;6158915;23;20149;-87